createdAt,value
2019-04-07T00:01:03.395Z,27.00
2019-04-07T00:03:32.469Z,27.17
2019-04-07T00:06:01.527Z,27.30
2019-04-07T00:08:31.231Z,27.77
2019-04-07T00:11:00.426Z,27.15
2019-04-07T00:13:29.497Z,26.97
2019-04-07T00:15:59.028Z,27.32
2019-04-07T00:18:28.265Z,27.48
2019-04-07T00:20:57.828Z,26.27
2019-04-07T00:23:27.665Z,26.93
2019-04-07T00:25:56.749Z,27.73
2019-04-07T00:28:25.866Z,26.17
2019-04-07T00:30:54.941Z,26.95
2019-04-07T00:33:23.979Z,26.87
2019-04-07T00:35:53.056Z,26.52
2019-04-07T00:38:22.798Z,26.55
2019-04-07T00:40:52.497Z,25.92
2019-04-07T00:43:21.606Z,27.40
2019-04-07T00:45:50.898Z,27.87
2019-04-07T00:48:19.974Z,26.05
2019-04-07T00:50:49.026Z,26.48
2019-04-07T00:53:18.687Z,26.00
2019-04-07T00:55:48.391Z,27.17
2019-04-07T00:58:17.860Z,27.35
2019-04-07T01:00:47.055Z,26.65
2019-04-07T01:03:16.110Z,26.95
2019-04-07T01:05:45.755Z,27.67
2019-04-07T01:08:15.490Z,27.27
2019-04-07T01:10:44.640Z,26.10
2019-04-07T01:13:14.390Z,27.35
2019-04-07T01:15:43.589Z,27.35
2019-04-07T01:18:13.129Z,28.05
2019-04-07T01:20:42.984Z,27.80
2019-04-07T01:23:12.731Z,28.12
2019-04-07T01:25:42.072Z,27.45
2019-04-07T01:28:11.136Z,27.75
2019-04-07T01:30:40.439Z,28.00
2019-04-07T01:33:09.570Z,27.60
2019-04-07T01:35:46.745Z,27.00
2019-04-07T01:38:10.384Z,26.85
2019-04-07T01:40:39.967Z,27.95
2019-04-07T01:43:10.812Z,26.82
2019-04-07T01:45:41.504Z,27.45
2019-04-07T01:48:17.941Z,27.22
2019-04-07T01:51:05.709Z,26.62
2019-04-07T01:53:48.429Z,27.65
2019-04-07T01:56:37.527Z,27.02
2019-04-07T01:59:17.223Z,28.30
2019-04-07T02:01:48.099Z,28.35
2019-04-07T02:04:37.436Z,26.95
2019-04-07T02:07:23.791Z,27.42
2019-04-07T02:10:04.352Z,26.87
2019-04-07T02:12:38.373Z,27.70
2019-04-07T02:15:09.806Z,27.75
2019-04-07T02:17:40.675Z,28.10
2019-04-07T02:20:20.720Z,27.67
2019-04-07T02:23:07.445Z,28.70
2019-04-07T02:25:41.583Z,27.93
2019-04-07T02:28:15.544Z,27.65
2019-04-07T02:31:01.583Z,27.62
2019-04-07T02:33:39.328Z,27.55
2019-04-07T02:36:17.912Z,27.35
2019-04-07T02:38:42.649Z,28.65
2019-04-07T02:41:13.354Z,27.75
2019-04-07T02:43:46.911Z,27.17
2019-04-07T02:46:27.085Z,28.80
2019-04-07T02:49:00.956Z,27.22
2019-04-07T02:51:32.558Z,28.92
2019-04-07T02:54:20.576Z,27.13
2019-04-07T02:56:54.327Z,26.60
2019-04-07T02:59:43.040Z,26.97
2019-04-07T03:02:31.635Z,27.82
2019-04-07T03:05:21.096Z,27.50
2019-04-07T03:08:01.560Z,28.57
2019-04-07T03:10:33.409Z,29.02
2019-04-07T03:13:07.315Z,29.95
2019-04-07T03:15:41.084Z,31.87
2019-04-07T03:18:27.940Z,31.30
2019-04-07T03:21:07.795Z,29.18
2019-04-07T03:23:41.624Z,28.92
2019-04-07T03:26:29.291Z,28.65
2019-04-07T03:29:03.501Z,28.35
2019-04-07T03:31:51.503Z,29.27
2019-04-07T03:34:24.117Z,29.25
2019-04-07T03:37:22.942Z,30.05
2019-04-07T03:39:39.409Z,28.55
2019-04-07T03:42:13.058Z,29.55
2019-04-07T03:44:46.916Z,28.85
2019-04-07T03:47:18.401Z,29.82
2019-04-07T03:49:55.416Z,30.10
2019-04-07T03:52:32.182Z,30.37
2019-04-07T03:55:08.737Z,30.10
2019-04-07T03:57:57.678Z,29.10
2019-04-07T04:01:11.366Z,29.15
2019-04-07T04:03:48.368Z,30.40
2019-04-07T04:06:21.863Z,29.57
2019-04-07T04:09:08.917Z,29.45
2019-04-07T04:11:48.854Z,28.75
2019-04-07T04:14:19.666Z,29.32
2019-04-07T04:16:50.901Z,28.62
2019-04-07T04:19:20.859Z,28.92
2019-04-07T04:21:49.996Z,29.32
2019-04-07T04:24:19.935Z,28.80
2019-04-07T04:26:49.968Z,29.45
2019-04-07T04:29:20.075Z,29.37
2019-04-07T04:31:49.406Z,29.18
2019-04-07T04:34:19.255Z,29.55
2019-04-07T04:36:48.559Z,29.55
2019-04-07T04:39:19.643Z,29.98
2019-04-07T04:41:48.993Z,28.23
2019-04-07T04:44:18.834Z,30.10
2019-04-07T04:46:48.630Z,28.87
2019-04-07T04:49:17.853Z,29.75
2019-04-07T04:51:46.920Z,29.92
2019-04-07T04:54:15.968Z,31.02
2019-04-07T04:56:45.028Z,30.08
2019-04-07T04:59:14.847Z,30.00
2019-04-07T05:01:44.492Z,30.00
2019-04-07T05:04:13.763Z,30.52
2019-04-07T05:06:43.501Z,30.75
2019-04-07T05:09:13.345Z,31.02
2019-04-07T05:11:42.892Z,31.48
2019-04-07T05:14:12.075Z,30.52
2019-04-07T05:16:41.116Z,31.75
2019-04-07T05:19:10.191Z,30.68
2019-04-07T05:21:40.444Z,30.00
2019-04-07T05:24:10.224Z,31.85
2019-04-07T05:26:39.705Z,31.60
2019-04-07T05:29:09.523Z,31.52
2019-04-07T05:31:38.708Z,31.70
2019-04-07T05:34:07.803Z,32.17
2019-04-07T05:36:37.883Z,31.77
2019-04-07T05:39:07.655Z,31.40
2019-04-07T05:41:37.211Z,32.30
2019-04-07T05:44:06.409Z,33.38
2019-04-07T05:46:38.551Z,33.45
2019-04-07T05:49:06.651Z,35.08
2019-04-07T05:51:35.763Z,34.65
2019-04-07T05:54:04.962Z,34.30
2019-04-07T05:56:34.007Z,34.92
2019-04-07T05:59:03.053Z,34.80
2019-04-07T06:01:32.214Z,34.98
2019-04-07T06:04:02.327Z,34.35
2019-04-07T06:06:31.697Z,33.02
2019-04-07T06:09:00.794Z,33.42
2019-04-07T06:11:33.044Z,32.88
2019-04-07T06:14:00.879Z,33.60
2019-04-07T06:16:30.078Z,33.45
2019-04-07T06:19:03.663Z,32.80
2019-04-07T06:21:33.382Z,31.70
2019-04-07T06:24:02.594Z,31.57
2019-04-07T06:26:31.682Z,31.57
2019-04-07T06:29:01.448Z,31.10
2019-04-07T06:31:32.236Z,30.55
2019-04-07T06:34:01.578Z,30.25
2019-04-07T06:36:30.889Z,30.02
2019-04-07T06:39:00.274Z,29.72
2019-04-07T06:41:31.213Z,29.20
2019-04-07T06:44:09.904Z,29.60
2019-04-07T06:46:32.678Z,29.40
2019-04-07T06:49:19.706Z,28.15
2019-04-07T06:52:07.362Z,27.70
2019-04-07T06:54:38.789Z,27.13
2019-04-07T06:57:26.573Z,28.55
2019-04-07T06:59:57.767Z,27.90
2019-04-07T07:02:29.528Z,28.00
2019-04-07T07:05:17.884Z,28.65
2019-04-07T07:07:52.087Z,27.90
2019-04-07T07:10:28.973Z,26.10
2019-04-07T07:13:25.616Z,26.37
2019-04-07T07:15:52.951Z,24.55
2019-04-07T07:18:26.367Z,25.75
2019-04-07T07:20:58.034Z,24.32
2019-04-07T07:23:35.545Z,23.27
2019-04-07T07:26:04.605Z,22.52
2019-04-07T07:28:33.807Z,21.12
2019-04-07T07:31:03.202Z,20.95
2019-04-07T07:33:32.429Z,20.20
2019-04-07T07:36:01.529Z,20.60
2019-04-07T07:38:32.679Z,20.60
2019-04-07T07:41:03.579Z,20.10
2019-04-07T07:43:33.700Z,19.90
2019-04-07T07:46:03.156Z,19.17
2019-04-07T07:48:32.443Z,19.55
2019-04-07T07:51:02.339Z,18.80
2019-04-07T07:53:31.671Z,20.92
2019-04-07T07:56:00.989Z,18.77
2019-04-07T07:58:32.725Z,18.95
2019-04-07T08:01:01.411Z,18.65
2019-04-07T08:03:31.466Z,17.73
2019-04-07T08:06:04.667Z,17.35
2019-04-07T08:08:31.403Z,17.30
2019-04-07T08:11:02.377Z,14.55
2019-04-07T08:13:31.302Z,15.48
2019-04-07T08:16:00.490Z,14.15
2019-04-07T08:18:29.713Z,15.78
2019-04-07T08:20:58.999Z,16.45
2019-04-07T08:23:28.617Z,16.90
2019-04-07T08:25:58.852Z,15.95
2019-04-07T08:28:28.198Z,16.07
2019-04-07T08:30:57.604Z,15.13
2019-04-07T08:33:28.730Z,13.95
2019-04-07T08:35:57.966Z,13.35
2019-04-07T08:38:28.305Z,14.60
2019-04-07T08:40:57.684Z,14.65
2019-04-07T08:43:27.594Z,14.07
2019-04-07T08:45:56.810Z,13.15
2019-04-07T08:48:26.784Z,12.73
2019-04-07T08:50:58.811Z,13.05
2019-04-07T08:53:26.866Z,13.25
2019-04-07T08:55:56.924Z,13.78
2019-04-07T08:58:28.989Z,13.68
2019-04-07T09:00:58.499Z,13.40
2019-04-07T09:03:28.011Z,13.43
2019-04-07T09:05:57.776Z,13.58
2019-04-07T09:08:27.557Z,12.10
2019-04-07T09:10:59.322Z,12.65
2019-04-07T09:13:31.672Z,10.90
2019-04-07T09:16:14.523Z,11.00
2019-04-07T09:19:04.374Z,10.40
2019-04-07T09:21:38.719Z,11.18
2019-04-07T09:24:03.988Z,10.90
2019-04-07T09:26:43.591Z,10.90
2019-04-07T09:29:15.162Z,10.45
2019-04-07T09:31:51.860Z,11.20
2019-04-07T09:34:39.179Z,11.93
2019-04-07T09:37:10.736Z,11.75
2019-04-07T09:39:57.830Z,14.40
2019-04-07T09:42:24.347Z,14.15
2019-04-07T09:44:52.892Z,13.70
2019-04-07T09:47:23.689Z,14.78
2019-04-07T09:50:11.791Z,14.18
2019-04-07T09:52:54.579Z,16.00
2019-04-07T09:55:26.782Z,13.75
2019-04-07T09:57:57.740Z,14.00
2019-04-07T10:00:45.449Z,14.15
2019-04-07T10:03:19.262Z,14.00
2019-04-07T10:06:01.998Z,12.88
2019-04-07T10:08:50.925Z,12.15
2019-04-07T10:11:33.957Z,11.85
2019-04-07T10:14:19.692Z,12.03
2019-04-07T10:16:56.335Z,12.20
2019-04-07T10:19:32.931Z,10.98
2019-04-07T10:22:06.299Z,10.65
2019-04-07T10:24:37.116Z,11.18
2019-04-07T10:27:23.264Z,11.45
2019-04-07T10:29:56.652Z,11.25
2019-04-07T10:32:36.828Z,10.75
2019-04-07T10:35:08.661Z,11.03
2019-04-07T10:37:45.396Z,11.50
2019-04-07T10:40:26.510Z,11.20
2019-04-07T10:43:04.095Z,11.48
2019-04-07T10:45:35.110Z,11.00
2019-04-07T10:48:15.549Z,11.78
2019-04-07T10:50:46.934Z,11.65
2019-04-07T10:53:20.658Z,12.63
2019-04-07T10:55:52.245Z,12.43
2019-04-07T10:58:26.548Z,13.30
2019-04-07T11:01:06.461Z,15.48
2019-04-07T11:03:43.134Z,16.50
2019-04-07T11:06:16.870Z,16.70
2019-04-07T11:09:02.582Z,18.00
2019-04-07T11:11:39.192Z,16.93
2019-04-07T11:14:13.406Z,17.65
2019-04-07T11:17:01.119Z,18.12
2019-04-07T11:19:32.184Z,18.48
2019-04-07T11:22:03.123Z,18.57
2019-04-07T11:24:50.119Z,19.55
2019-04-07T11:27:39.230Z,19.25
2019-04-07T11:30:13.290Z,20.97
2019-04-07T11:32:53.335Z,20.30
2019-04-07T11:35:32.894Z,20.77
2019-04-07T11:38:03.621Z,20.50
2019-04-07T11:40:45.772Z,20.02
2019-04-07T11:43:25.991Z,21.02
2019-04-07T11:46:15.083Z,20.27
2019-04-07T11:49:02.449Z,19.52
2019-04-07T11:51:35.913Z,20.02
2019-04-07T11:54:15.338Z,19.50
2019-04-07T11:56:54.666Z,21.00
2019-04-07T11:59:41.254Z,20.20
2019-04-07T12:02:12.575Z,21.05
2019-04-07T12:05:01.754Z,20.35
2019-04-07T12:07:39.144Z,20.15
2019-04-07T12:10:23.416Z,20.45
2019-04-07T12:13:03.632Z,19.90
2019-04-07T12:15:34.720Z,19.30
2019-04-07T12:18:07.673Z,18.55
2019-04-07T12:20:53.223Z,19.30
2019-04-07T12:23:40.557Z,19.05
2019-04-07T12:26:28.516Z,21.05
2019-04-07T12:29:17.862Z,21.05
2019-04-07T12:31:52.153Z,20.20
2019-04-07T12:34:41.803Z,20.62
2019-04-07T12:37:17.583Z,20.75
2019-04-07T12:39:52.117Z,19.67
2019-04-07T12:42:32.106Z,20.82
2019-04-07T12:45:19.432Z,21.42
2019-04-07T12:48:05.955Z,21.12
2019-04-07T12:50:39.490Z,20.60
2019-04-07T12:53:13.527Z,20.68
2019-04-07T12:55:54.800Z,20.10
2019-04-07T12:58:36.813Z,19.92
2019-04-07T13:01:17.974Z,19.73
2019-04-07T13:03:55.770Z,20.35
2019-04-07T13:06:26.652Z,18.92
2019-04-07T13:09:12.533Z,19.90
2019-04-07T13:11:47.185Z,20.52
2019-04-07T13:14:32.386Z,20.17
2019-04-07T13:17:06.169Z,18.32
2019-04-07T13:19:50.301Z,18.25
2019-04-07T13:22:25.065Z,20.02
2019-04-07T13:24:58.179Z,19.87
2019-04-07T13:27:44.706Z,19.17
2019-04-07T13:30:16.055Z,19.82
2019-04-07T13:32:53.023Z,19.90
2019-04-07T13:35:31.146Z,18.20
2019-04-07T13:38:13.671Z,19.45
2019-04-07T13:41:01.682Z,19.52
2019-04-07T13:43:33.958Z,21.17
2019-04-07T13:46:27.842Z,19.75
2019-04-07T13:49:00.402Z,18.77
2019-04-07T13:51:45.626Z,19.40
2019-04-07T13:54:15.229Z,18.95
2019-04-07T13:57:02.207Z,20.60
2019-04-07T13:59:48.835Z,19.77
2019-04-07T14:02:29.650Z,18.77
2019-04-07T14:05:07.716Z,18.55
2019-04-07T14:07:49.180Z,18.42
2019-04-07T14:10:18.560Z,18.82
2019-04-07T14:13:03.527Z,18.17
2019-04-07T14:15:43.160Z,19.00
2019-04-07T14:18:23.023Z,18.10
2019-04-07T14:20:54.041Z,18.62
2019-04-07T14:23:25.210Z,18.12
2019-04-07T14:25:58.778Z,18.42
2019-04-07T14:28:39.013Z,19.02
2019-04-07T14:31:26.887Z,18.75
2019-04-07T14:34:00.592Z,18.12
2019-04-07T14:36:40.515Z,18.73
2019-04-07T14:39:11.789Z,17.67
2019-04-07T14:41:43.391Z,18.57
2019-04-07T14:44:15.109Z,19.35
2019-04-07T14:46:52.377Z,20.02
2019-04-07T14:49:35.788Z,19.12
2019-04-07T14:52:09.115Z,18.50
2019-04-07T14:54:58.568Z,19.00
2019-04-07T14:57:31.463Z,18.75
2019-04-07T15:00:10.965Z,17.87
2019-04-07T15:02:40.077Z,18.53
2019-04-07T15:05:25.308Z,18.57
2019-04-07T15:08:00.051Z,18.70
2019-04-07T15:10:37.305Z,18.20
2019-04-07T15:13:08.748Z,18.17
2019-04-07T15:15:37.597Z,19.17
2019-04-07T15:18:07.226Z,18.17
2019-04-07T15:20:36.096Z,18.00
2019-04-07T15:23:05.547Z,17.70
2019-04-07T15:25:34.405Z,19.83
2019-04-07T15:28:03.241Z,18.37
2019-04-07T15:30:32.025Z,17.97
2019-04-07T15:33:02.637Z,19.53
2019-04-07T15:35:31.297Z,18.97
2019-04-07T15:38:00.120Z,19.20
2019-04-07T15:40:30.840Z,18.87
2019-04-07T15:43:03.142Z,18.40
2019-04-07T15:45:30.841Z,18.67
2019-04-07T15:48:00.671Z,18.63
2019-04-07T15:50:30.474Z,18.53
2019-04-07T15:53:00.081Z,19.03
2019-04-07T15:55:43.299Z,18.13
2019-04-07T15:57:59.706Z,17.80
2019-04-07T16:00:32.373Z,17.83
2019-04-07T16:03:00.046Z,18.23
2019-04-07T16:05:29.025Z,18.20
2019-04-07T16:07:58.100Z,18.67
2019-04-07T16:10:26.916Z,17.20
2019-04-07T16:12:58.953Z,17.80
2019-04-07T16:15:27.005Z,17.43
2019-04-07T16:17:56.696Z,17.63
2019-04-07T16:20:31.533Z,18.47
2019-04-07T16:22:56.136Z,18.33
2019-04-07T16:25:27.632Z,18.43
2019-04-07T16:27:55.472Z,19.37
2019-04-07T16:30:24.819Z,19.32
2019-04-07T16:32:54.749Z,19.50
2019-04-07T16:35:24.563Z,18.30
2019-04-07T16:37:54.244Z,18.73
2019-04-07T16:40:23.847Z,19.37
2019-04-07T16:43:04.768Z,17.75
2019-04-07T16:45:23.872Z,18.80
2019-04-07T16:47:53.129Z,18.17
2019-04-07T16:50:22.991Z,18.00
2019-04-07T16:52:52.140Z,19.00
2019-04-07T16:55:33.182Z,19.12
2019-04-07T16:58:03.295Z,18.62
2019-04-07T17:00:32.729Z,19.27
2019-04-07T17:03:02.454Z,18.20
2019-04-07T17:05:32.267Z,18.77
2019-04-07T17:08:01.764Z,18.20
2019-04-07T17:10:34.094Z,18.23
2019-04-07T17:13:13.891Z,19.20
2019-04-07T17:15:34.963Z,19.00
2019-04-07T17:18:07.244Z,19.23
2019-04-07T17:20:37.763Z,16.67
2019-04-07T17:23:07.213Z,19.00
2019-04-07T17:25:36.335Z,19.52
2019-04-07T17:28:06.358Z,18.40
2019-04-07T17:30:38.109Z,18.77
2019-04-07T17:33:06.696Z,18.87
2019-04-07T17:35:35.967Z,19.12
2019-04-07T17:38:07.180Z,17.80
2019-04-07T17:40:45.218Z,18.05
2019-04-07T17:43:28.116Z,18.87
2019-04-07T17:45:54.495Z,18.05
2019-04-07T17:48:41.170Z,18.40
2019-04-07T17:51:20.623Z,19.55
2019-04-07T17:53:51.732Z,18.98
2019-04-07T17:56:34.246Z,19.32
2019-04-07T17:59:08.696Z,22.95
2019-04-07T18:01:44.159Z,19.40
2019-04-07T18:04:18.818Z,19.65
2019-04-07T18:07:06.243Z,19.48
2019-04-07T18:09:53.413Z,19.37
2019-04-07T18:12:31.778Z,18.75
2019-04-07T18:15:10.375Z,18.87
2019-04-07T18:17:57.641Z,19.35
2019-04-07T18:20:42.983Z,19.47
2019-04-07T18:23:16.409Z,20.60
2019-04-07T18:25:53.245Z,19.32
2019-04-07T18:28:29.091Z,20.15
2019-04-07T18:31:04.353Z,19.90
2019-04-07T18:33:53.354Z,19.37
2019-04-07T18:36:23.548Z,20.75
2019-04-07T18:39:03.425Z,19.95
2019-04-07T18:41:41.365Z,19.55
2019-04-07T18:44:12.229Z,19.92
2019-04-07T18:46:58.907Z,19.57
2019-04-07T18:49:48.443Z,18.95
2019-04-07T18:52:26.854Z,19.42
2019-04-07T18:55:07.763Z,19.15
2019-04-07T18:57:43.914Z,18.85
2019-04-07T19:00:18.891Z,19.45
2019-04-07T19:03:06.077Z,19.20
2019-04-07T19:05:45.851Z,18.27
2019-04-07T19:08:20.125Z,21.90
2019-04-07T19:10:52.930Z,18.40
2019-04-07T19:13:26.968Z,18.45
2019-04-07T19:15:59.791Z,18.30
2019-04-07T19:18:36.953Z,17.85
2019-04-07T19:21:24.676Z,18.42
2019-04-07T19:23:58.570Z,17.98
2019-04-07T19:26:39.905Z,19.50
2019-04-07T19:29:28.427Z,17.37
2019-04-07T19:32:08.421Z,17.95
2019-04-07T19:34:41.837Z,18.82
2019-04-07T19:37:28.984Z,17.98
2019-04-07T19:40:16.707Z,17.82
2019-04-07T19:42:49.466Z,17.42
2019-04-07T19:45:26.822Z,17.62
2019-04-07T19:47:58.155Z,17.70
2019-04-07T19:50:37.904Z,16.73
2019-04-07T19:53:18.061Z,17.00
2019-04-07T19:55:56.853Z,18.35
2019-04-07T19:58:37.290Z,17.48
2019-04-07T20:01:06.342Z,17.67
2019-04-07T20:03:52.554Z,17.07
2019-04-07T20:06:39.844Z,17.60
2019-04-07T20:09:12.290Z,16.35
2019-04-07T20:11:45.917Z,16.65
2019-04-07T20:14:19.824Z,19.20
2019-04-07T20:16:59.855Z,18.05
2019-04-07T20:19:47.411Z,17.80
2019-04-07T20:22:35.078Z,17.62
2019-04-07T20:25:20.400Z,17.65
2019-04-07T20:27:55.745Z,16.80
2019-04-07T20:30:28.657Z,16.75
2019-04-07T20:33:08.066Z,16.90
2019-04-07T20:35:42.999Z,17.00
2019-04-07T20:38:27.659Z,16.87
2019-04-07T20:41:17.084Z,16.07
2019-04-07T20:43:48.430Z,16.37
2019-04-07T20:46:23.780Z,15.75
2019-04-07T20:49:08.294Z,17.45
2019-04-07T20:51:39.475Z,16.90
2019-04-07T20:54:16.013Z,16.00
2019-04-07T20:56:49.840Z,16.40
2019-04-07T20:59:25.295Z,16.87
2019-04-07T21:02:07.191Z,18.00
2019-04-07T21:04:51.470Z,16.82
2019-04-07T21:07:23.384Z,17.10
2019-04-07T21:09:54.257Z,16.90
2019-04-07T21:12:37.075Z,16.32
2019-04-07T21:15:21.157Z,15.88
2019-04-07T21:17:46.935Z,16.80
2019-04-07T21:20:17.998Z,16.80
2019-04-07T21:22:49.707Z,17.75
2019-04-07T21:25:25.138Z,16.67
2019-04-07T21:27:58.879Z,17.17
2019-04-07T21:30:32.049Z,17.27
2019-04-07T21:33:05.400Z,16.90
2019-04-07T21:35:52.613Z,17.67
2019-04-07T21:38:25.695Z,16.67
2019-04-07T21:40:59.745Z,17.20
2019-04-07T21:43:42.885Z,17.50
2019-04-07T21:46:20.157Z,16.40
2019-04-07T21:48:48.981Z,16.00
2019-04-07T21:51:19.705Z,16.40
2019-04-07T21:53:50.398Z,16.32
2019-04-07T21:56:23.958Z,16.87
2019-04-07T21:58:56.829Z,16.60
2019-04-07T22:01:35.367Z,20.10
2019-04-07T22:04:08.371Z,16.07
2019-04-07T22:06:39.323Z,16.02
2019-04-07T22:09:18.141Z,16.45
2019-04-07T22:11:47.666Z,16.55
2019-04-07T22:14:16.786Z,15.68
2019-04-07T22:16:45.846Z,16.65
2019-04-07T22:19:16.251Z,16.52
2019-04-07T22:21:45.772Z,16.40
2019-04-07T22:24:15.256Z,16.93
2019-04-07T22:26:49.080Z,15.98
2019-04-07T22:29:16.119Z,16.42
2019-04-07T22:31:47.778Z,15.65
2019-04-07T22:34:16.969Z,15.60
2019-04-07T22:36:47.874Z,15.83
2019-04-07T22:39:16.956Z,16.05
2019-04-07T22:41:46.306Z,15.85
2019-04-07T22:44:15.615Z,17.20
2019-04-07T22:46:48.114Z,16.45
2019-04-07T22:49:15.619Z,16.12
2019-04-07T22:51:47.062Z,16.45
2019-04-07T22:54:15.605Z,16.45
2019-04-07T22:56:44.713Z,15.85
2019-04-07T22:59:13.791Z,16.90
2019-04-07T23:01:43.111Z,15.38
2019-04-07T23:04:12.273Z,16.50
2019-04-07T23:06:41.408Z,16.48
2019-04-07T23:09:10.475Z,17.20
2019-04-07T23:11:39.854Z,16.67
2019-04-07T23:14:09.487Z,17.30
2019-04-07T23:16:38.693Z,16.37
2019-04-07T23:19:07.767Z,16.62
2019-04-07T23:21:37.470Z,16.40
2019-04-07T23:24:06.665Z,16.75
2019-04-07T23:26:35.729Z,17.12
2019-04-07T23:29:05.630Z,16.48
2019-04-07T23:31:36.300Z,15.93
2019-04-07T23:34:06.312Z,16.40
2019-04-07T23:36:36.195Z,16.67
2019-04-07T23:39:06.849Z,17.45
2019-04-07T23:41:36.021Z,16.95
2019-04-07T23:44:06.046Z,17.50
2019-04-07T23:46:35.854Z,16.07
2019-04-07T23:49:06.067Z,16.82
2019-04-07T23:51:35.187Z,17.05
2019-04-07T23:54:12.269Z,17.62
2019-04-07T23:56:43.627Z,16.52
2019-04-07T23:59:14.455Z,17.02
